LKPK weather

Písek UL
Písek, South Bohemian Region, Czechia

Public forecast

Using degrees Celsius for public forecast. Weather courtesy of forecast.io.

METAR (pilot weather report)

Closest report is Plzeň-Líně Airport, 38.4 nm (71.2 km) WNW. Retrieved 2019/07/21 22:00 UTC (20 minutes ago):

LKLN 212200Z AUTO 00000KT 9999 FEW060 SCT069 17/17 Q1024

TAF (pilot weather forecast)

Closest forecast is Václav Havel Airport Prague, 46.1 nm (85.3 km) N. Retrieved 2019/07/21 18:15 UTC (4 hours ago):

TAF LKPR 211700Z 2118/2300 24008KT CAVOK PROB30 TEMPO 2202/2206 3000 BR SCT010 BECMG 2210/2212 31008KT TEMPO 2211/2215 SCT050TCU